sensor_id;sensor_type;location;lat;lon;timestamp;P1;durP1;ratioP1;P2;durP2;ratioP2
11125;SDS011;5617;54.046;10.676;2022-08-21T00:00:11;4.40;;;1.70;;
11125;SDS011;5617;54.046;10.676;2022-08-21T00:02:21;3.37;;;1.70;;
11125;SDS011;5617;54.046;10.676;2022-08-21T00:04:31;4.83;;;1.80;;
11125;SDS011;5617;54.046;10.676;2022-08-21T00:06:39;4.17;;;2.07;;
11125;SDS011;5617;54.046;10.676;2022-08-21T00:08:47;3.97;;;1.70;;
11125;SDS011;5617;54.046;10.676;2022-08-21T00:10:54;3.07;;;1.60;;
11125;SDS011;5617;54.046;10.676;2022-08-21T00:13:02;3.27;;;1.73;;
11125;SDS011;5617;54.046;10.676;2022-08-21T00:15:11;4.17;;;1.87;;
11125;SDS011;5617;54.046;10.676;2022-08-21T00:17:20;5.73;;;1.60;;
11125;SDS011;5617;54.046;10.676;2022-08-21T00:19:28;2.17;;;1.40;;
11125;SDS011;5617;54.046;10.676;2022-08-21T00:21:38;5.33;;;1.60;;
11125;SDS011;5617;54.046;10.676;2022-08-21T00:23:45;3.77;;;1.90;;
11125;SDS011;5617;54.046;10.676;2022-08-21T00:25:53;3.17;;;1.83;;
11125;SDS011;5617;54.046;10.676;2022-08-21T00:28:00;2.63;;;1.57;;
11125;SDS011;5617;54.046;10.676;2022-08-21T00:30:09;2.53;;;1.60;;
11125;SDS011;5617;54.046;10.676;2022-08-21T00:32:22;3.73;;;1.80;;
11125;SDS011;5617;54.046;10.676;2022-08-21T00:34:30;4.20;;;1.60;;
11125;SDS011;5617;54.046;10.676;2022-08-21T00:36:39;4.37;;;2.07;;
11125;SDS011;5617;54.046;10.676;2022-08-21T00:38:47;3.97;;;1.93;;
11125;SDS011;5617;54.046;10.676;2022-08-21T00:40:56;7.40;;;1.77;;
11125;SDS011;5617;54.046;10.676;2022-08-21T00:43:06;3.10;;;1.77;;
11125;SDS011;5617;54.046;10.676;2022-08-21T00:45:16;3.87;;;1.87;;
11125;SDS011;5617;54.046;10.676;2022-08-21T00:47:23;4.23;;;1.80;;
11125;SDS011;5617;54.046;10.676;2022-08-21T00:49:31;3.93;;;1.70;;
11125;SDS011;5617;54.046;10.676;2022-08-21T00:51:41;2.93;;;1.67;;
11125;SDS011;5617;54.046;10.676;2022-08-21T00:53:54;3.10;;;1.90;;
11125;SDS011;5617;54.046;10.676;2022-08-21T00:56:07;2.57;;;1.80;;
11125;SDS011;5617;54.046;10.676;2022-08-21T00:58:17;3.90;;;1.77;;
11125;SDS011;5617;54.046;10.676;2022-08-21T01:00:27;3.63;;;1.70;;
11125;SDS011;5617;54.046;10.676;2022-08-21T01:02:37;2.97;;;2.13;;
11125;SDS011;5617;54.046;10.676;2022-08-21T01:04:45;2.87;;;2.00;;
11125;SDS011;5617;54.046;10.676;2022-08-21T01:06:54;3.13;;;1.90;;
11125;SDS011;5617;54.046;10.676;2022-08-21T01:09:02;3.27;;;2.37;;
11125;SDS011;5617;54.046;10.676;2022-08-21T01:11:11;3.07;;;2.07;;
11125;SDS011;5617;54.046;10.676;2022-08-21T01:13:19;5.83;;;1.90;;
11125;SDS011;5617;54.046;10.676;2022-08-21T01:15:31;3.77;;;2.30;;
11125;SDS011;5617;54.046;10.676;2022-08-21T01:17:41;4.57;;;2.10;;
11125;SDS011;5617;54.046;10.676;2022-08-21T01:19:49;2.70;;;2.07;;
11125;SDS011;5617;54.046;10.676;2022-08-21T01:21:58;4.27;;;2.33;;
11125;SDS011;5617;54.046;10.676;2022-08-21T01:24:05;3.30;;;1.90;;
11125;SDS011;5617;54.046;10.676;2022-08-21T01:26:14;4.03;;;2.10;;
11125;SDS011;5617;54.046;10.676;2022-08-21T01:28:23;3.33;;;2.40;;
11125;SDS011;5617;54.046;10.676;2022-08-21T01:30:31;4.10;;;2.20;;
11125;SDS011;5617;54.046;10.676;2022-08-21T01:32:42;3.17;;;2.20;;
11125;SDS011;5617;54.046;10.676;2022-08-21T01:34:51;3.87;;;2.20;;
11125;SDS011;5617;54.046;10.676;2022-08-21T01:37:01;4.73;;;2.30;;
11125;SDS011;5617;54.046;10.676;2022-08-21T01:39:09;3.63;;;2.60;;
11125;SDS011;5617;54.046;10.676;2022-08-21T01:41:17;2.23;;;2.03;;
11125;SDS011;5617;54.046;10.676;2022-08-21T01:43:24;3.43;;;2.20;;
11125;SDS011;5617;54.046;10.676;2022-08-21T01:45:32;5.30;;;2.17;;
11125;SDS011;5617;54.046;10.676;2022-08-21T01:47:40;3.90;;;2.10;;
11125;SDS011;5617;54.046;10.676;2022-08-21T01:49:48;4.23;;;2.20;;
11125;SDS011;5617;54.046;10.676;2022-08-21T01:51:57;3.67;;;2.40;;
11125;SDS011;5617;54.046;10.676;2022-08-21T01:54:06;3.23;;;2.03;;
11125;SDS011;5617;54.046;10.676;2022-08-21T01:56:15;2.57;;;2.00;;
11125;SDS011;5617;54.046;10.676;2022-08-21T01:58:23;5.87;;;2.30;;
11125;SDS011;5617;54.046;10.676;2022-08-21T02:00:31;4.07;;;2.03;;
11125;SDS011;5617;54.046;10.676;2022-08-21T02:02:40;3.43;;;2.20;;
11125;SDS011;5617;54.046;10.676;2022-08-21T02:04:48;4.80;;;2.33;;
11125;SDS011;5617;54.046;10.676;2022-08-21T02:06:56;3.53;;;2.27;;
11125;SDS011;5617;54.046;10.676;2022-08-21T02:09:05;2.80;;;2.13;;
11125;SDS011;5617;54.046;10.676;2022-08-21T02:11:15;4.30;;;2.23;;
11125;SDS011;5617;54.046;10.676;2022-08-21T02:13:23;3.23;;;2.30;;
11125;SDS011;5617;54.046;10.676;2022-08-21T02:15:30;3.30;;;2.40;;
11125;SDS011;5617;54.046;10.676;2022-08-21T02:17:39;5.30;;;2.43;;
11125;SDS011;5617;54.046;10.676;2022-08-21T02:19:48;3.27;;;2.40;;
11125;SDS011;5617;54.046;10.676;2022-08-21T02:21:56;2.67;;;2.30;;
11125;SDS011;5617;54.046;10.676;2022-08-21T02:24:04;3.10;;;2.30;;
11125;SDS011;5617;54.046;10.676;2022-08-21T02:26:14;2.90;;;2.50;;
11125;SDS011;5617;54.046;10.676;2022-08-21T02:28:22;3.37;;;2.50;;
11125;SDS011;5617;54.046;10.676;2022-08-21T02:30:32;4.27;;;2.13;;
11125;SDS011;5617;54.046;10.676;2022-08-21T02:32:41;3.50;;;2.23;;
11125;SDS011;5617;54.046;10.676;2022-08-21T02:34:49;4.40;;;2.37;;
11125;SDS011;5617;54.046;10.676;2022-08-21T02:36:57;3.87;;;2.20;;
11125;SDS011;5617;54.046;10.676;2022-08-21T02:39:04;2.73;;;2.13;;
11125;SDS011;5617;54.046;10.676;2022-08-21T02:41:14;5.97;;;2.47;;
11125;SDS011;5617;54.046;10.676;2022-08-21T02:43:25;3.07;;;2.30;;
11125;SDS011;5617;54.046;10.676;2022-08-21T02:45:34;3.83;;;2.10;;
11125;SDS011;5617;54.046;10.676;2022-08-21T02:47:46;6.43;;;2.07;;
11125;SDS011;5617;54.046;10.676;2022-08-21T02:49:54;3.07;;;2.10;;
11125;SDS011;5617;54.046;10.676;2022-08-21T02:52:02;3.03;;;2.10;;
11125;SDS011;5617;54.046;10.676;2022-08-21T02:54:13;6.53;;;2.10;;
11125;SDS011;5617;54.046;10.676;2022-08-21T02:56:22;2.40;;;2.20;;
11125;SDS011;5617;54.046;10.676;2022-08-21T02:58:30;3.20;;;2.10;;
11125;SDS011;5617;54.046;10.676;2022-08-21T03:00:41;2.13;;;1.90;;
11125;SDS011;5617;54.046;10.676;2022-08-21T03:02:49;2.83;;;1.80;;
11125;SDS011;5617;54.046;10.676;2022-08-21T03:04:57;2.10;;;1.90;;
11125;SDS011;5617;54.046;10.676;2022-08-21T03:07:05;3.47;;;1.90;;
11125;SDS011;5617;54.046;10.676;2022-08-21T03:09:15;2.63;;;1.90;;
11125;SDS011;5617;54.046;10.676;2022-08-21T03:11:22;3.60;;;2.17;;
11125;SDS011;5617;54.046;10.676;2022-08-21T03:13:30;3.00;;;1.87;;
11125;SDS011;5617;54.046;10.676;2022-08-21T03:15:39;2.70;;;2.10;;
11125;SDS011;5617;54.046;10.676;2022-08-21T03:17:47;2.50;;;1.97;;
11125;SDS011;5617;54.046;10.676;2022-08-21T03:19:55;3.10;;;1.90;;
11125;SDS011;5617;54.046;10.676;2022-08-21T03:22:03;2.90;;;1.80;;
11125;SDS011;5617;54.046;10.676;2022-08-21T03:24:12;3.03;;;1.80;;
11125;SDS011;5617;54.046;10.676;2022-08-21T03:26:21;2.23;;;2.00;;
11125;SDS011;5617;54.046;10.676;2022-08-21T03:28:30;4.03;;;1.90;;
11125;SDS011;5617;54.046;10.676;2022-08-21T03:30:38;2.37;;;2.00;;
11125;SDS011;5617;54.046;10.676;2022-08-21T03:32:46;2.27;;;2.10;;
11125;SDS011;5617;54.046;10.676;2022-08-21T03:34:54;2.30;;;2.00;;
11125;SDS011;5617;54.046;10.676;2022-08-21T03:37:02;3.73;;;2.47;;
11125;SDS011;5617;54.046;10.676;2022-08-21T03:39:10;3.93;;;2.17;;
11125;SDS011;5617;54.046;10.676;2022-08-21T03:41:17;4.07;;;2.00;;
11125;SDS011;5617;54.046;10.676;2022-08-21T03:43:27;4.07;;;2.30;;
11125;SDS011;5617;54.046;10.676;2022-08-21T03:45:35;2.50;;;2.03;;
11125;SDS011;5617;54.046;10.676;2022-08-21T03:47:51;3.23;;;2.30;;
11125;SDS011;5617;54.046;10.676;2022-08-21T03:50:01;3.37;;;2.13;;
11125;SDS011;5617;54.046;10.676;2022-08-21T03:52:10;2.67;;;2.40;;
11125;SDS011;5617;54.046;10.676;2022-08-21T03:54:17;2.00;;;1.90;;
11125;SDS011;5617;54.046;10.676;2022-08-21T03:56:25;2.13;;;1.97;;
11125;SDS011;5617;54.046;10.676;2022-08-21T03:58:34;2.13;;;1.70;;
11125;SDS011;5617;54.046;10.676;2022-08-21T04:00:42;2.30;;;1.80;;
11125;SDS011;5617;54.046;10.676;2022-08-21T04:02:50;2.23;;;1.77;;
11125;SDS011;5617;54.046;10.676;2022-08-21T04:04:58;2.10;;;1.90;;
11125;SDS011;5617;54.046;10.676;2022-08-21T04:07:06;2.80;;;1.90;;
11125;SDS011;5617;54.046;10.676;2022-08-21T04:09:14;2.20;;;1.80;;
11125;SDS011;5617;54.046;10.676;2022-08-21T04:11:21;5.93;;;1.80;;
11125;SDS011;5617;54.046;10.676;2022-08-21T04:13:29;2.20;;;1.73;;
11125;SDS011;5617;54.046;10.676;2022-08-21T04:15:38;2.20;;;1.90;;
11125;SDS011;5617;54.046;10.676;2022-08-21T04:17:46;3.07;;;2.00;;
11125;SDS011;5617;54.046;10.676;2022-08-21T04:19:54;2.20;;;1.70;;
11125;SDS011;5617;54.046;10.676;2022-08-21T04:22:02;3.03;;;1.43;;
11125;SDS011;5617;54.046;10.676;2022-08-21T04:24:10;1.70;;;1.60;;
11125;SDS011;5617;54.046;10.676;2022-08-21T04:26:17;2.03;;;1.83;;
11125;SDS011;5617;54.046;10.676;2022-08-21T04:28:25;3.20;;;1.90;;
11125;SDS011;5617;54.046;10.676;2022-08-21T04:30:34;3.10;;;1.97;;
11125;SDS011;5617;54.046;10.676;2022-08-21T04:32:45;2.97;;;1.93;;
11125;SDS011;5617;54.046;10.676;2022-08-21T04:34:57;2.20;;;2.00;;
11125;SDS011;5617;54.046;10.676;2022-08-21T04:37:05;2.63;;;1.80;;
11125;SDS011;5617;54.046;10.676;2022-08-21T04:39:13;1.93;;;1.83;;
11125;SDS011;5617;54.046;10.676;2022-08-21T04:41:20;2.77;;;2.40;;
11125;SDS011;5617;54.046;10.676;2022-08-21T04:43:28;4.73;;;2.77;;
11125;SDS011;5617;54.046;10.676;2022-08-21T04:45:37;4.63;;;2.90;;
11125;SDS011;5617;54.046;10.676;2022-08-21T04:47:48;7.23;;;5.57;;
11125;SDS011;5617;54.046;10.676;2022-08-21T04:49:56;5.40;;;4.20;;
11125;SDS011;5617;54.046;10.676;2022-08-21T04:52:05;4.57;;;4.00;;
11125;SDS011;5617;54.046;10.676;2022-08-21T04:54:14;5.80;;;3.63;;
11125;SDS011;5617;54.046;10.676;2022-08-21T04:56:26;6.60;;;3.83;;
11125;SDS011;5617;54.046;10.676;2022-08-21T04:58:37;3.63;;;3.00;;
11125;SDS011;5617;54.046;10.676;2022-08-21T05:00:48;3.50;;;3.00;;
11125;SDS011;5617;54.046;10.676;2022-08-21T05:03:00;3.73;;;3.40;;
11125;SDS011;5617;54.046;10.676;2022-08-21T05:05:10;5.57;;;3.67;;
11125;SDS011;5617;54.046;10.676;2022-08-21T05:07:19;3.47;;;3.20;;
11125;SDS011;5617;54.046;10.676;2022-08-21T05:09:30;3.00;;;2.80;;
11125;SDS011;5617;54.046;10.676;2022-08-21T05:11:38;2.57;;;2.37;;
11125;SDS011;5617;54.046;10.676;2022-08-21T05:13:47;2.60;;;2.40;;
11125;SDS011;5617;54.046;10.676;2022-08-21T05:15:55;4.40;;;2.40;;
11125;SDS011;5617;54.046;10.676;2022-08-21T05:18:04;2.53;;;2.27;;
11125;SDS011;5617;54.046;10.676;2022-08-21T05:20:14;2.33;;;1.83;;
11125;SDS011;5617;54.046;10.676;2022-08-21T05:22:22;3.97;;;2.30;;
11125;SDS011;5617;54.046;10.676;2022-08-21T05:24:30;3.87;;;2.23;;
11125;SDS011;5617;54.046;10.676;2022-08-21T05:26:39;3.93;;;2.20;;
11125;SDS011;5617;54.046;10.676;2022-08-21T05:28:47;3.40;;;2.47;;
11125;SDS011;5617;54.046;10.676;2022-08-21T05:30:54;4.40;;;2.43;;
11125;SDS011;5617;54.046;10.676;2022-08-21T05:33:04;3.67;;;2.50;;
11125;SDS011;5617;54.046;10.676;2022-08-21T05:35:13;3.43;;;2.47;;
11125;SDS011;5617;54.046;10.676;2022-08-21T05:37:21;4.47;;;2.43;;
11125;SDS011;5617;54.046;10.676;2022-08-21T05:39:28;2.90;;;2.37;;
11125;SDS011;5617;54.046;10.676;2022-08-21T05:41:36;4.40;;;2.77;;
11125;SDS011;5617;54.046;10.676;2022-08-21T05:43:44;3.50;;;2.90;;
11125;SDS011;5617;54.046;10.676;2022-08-21T05:45:51;6.20;;;3.00;;
11125;SDS011;5617;54.046;10.676;2022-08-21T05:48:06;3.17;;;2.60;;
11125;SDS011;5617;54.046;10.676;2022-08-21T05:50:13;3.10;;;2.87;;
11125;SDS011;5617;54.046;10.676;2022-08-21T05:52:21;3.43;;;2.73;;
11125;SDS011;5617;54.046;10.676;2022-08-21T05:54:29;3.77;;;2.90;;
11125;SDS011;5617;54.046;10.676;2022-08-21T05:56:37;3.37;;;3.03;;
11125;SDS011;5617;54.046;10.676;2022-08-21T05:58:45;3.87;;;3.13;;
11125;SDS011;5617;54.046;10.676;2022-08-21T06:00:53;3.43;;;3.13;;
11125;SDS011;5617;54.046;10.676;2022-08-21T06:03:00;3.70;;;2.83;;
11125;SDS011;5617;54.046;10.676;2022-08-21T06:05:09;3.80;;;2.63;;
11125;SDS011;5617;54.046;10.676;2022-08-21T06:07:19;5.57;;;3.17;;
11125;SDS011;5617;54.046;10.676;2022-08-21T06:09:28;4.63;;;2.80;;
11125;SDS011;5617;54.046;10.676;2022-08-21T06:11:35;3.70;;;2.70;;
11125;SDS011;5617;54.046;10.676;2022-08-21T06:13:43;3.83;;;2.80;;
11125;SDS011;5617;54.046;10.676;2022-08-21T06:15:59;3.30;;;2.77;;
11125;SDS011;5617;54.046;10.676;2022-08-21T06:18:08;3.37;;;2.60;;
11125;SDS011;5617;54.046;10.676;2022-08-21T06:20:17;4.40;;;3.00;;
11125;SDS011;5617;54.046;10.676;2022-08-21T06:22:25;4.40;;;3.00;;
11125;SDS011;5617;54.046;10.676;2022-08-21T06:24:34;3.90;;;2.90;;
11125;SDS011;5617;54.046;10.676;2022-08-21T06:26:42;4.10;;;3.13;;
11125;SDS011;5617;54.046;10.676;2022-08-21T06:28:50;6.07;;;3.67;;
11125;SDS011;5617;54.046;10.676;2022-08-21T06:30:59;4.33;;;3.20;;
11125;SDS011;5617;54.046;10.676;2022-08-21T06:33:06;3.40;;;3.10;;
11125;SDS011;5617;54.046;10.676;2022-08-21T06:35:14;5.03;;;2.80;;
11125;SDS011;5617;54.046;10.676;2022-08-21T06:37:23;6.93;;;3.00;;
11125;SDS011;5617;54.046;10.676;2022-08-21T06:39:31;4.60;;;3.00;;
11125;SDS011;5617;54.046;10.676;2022-08-21T06:41:39;3.20;;;2.20;;
11125;SDS011;5617;54.046;10.676;2022-08-21T06:43:46;5.30;;;2.30;;
11125;SDS011;5617;54.046;10.676;2022-08-21T06:45:54;3.57;;;2.13;;
11125;SDS011;5617;54.046;10.676;2022-08-21T06:48:02;4.57;;;2.60;;
11125;SDS011;5617;54.046;10.676;2022-08-21T06:50:11;4.30;;;2.60;;
11125;SDS011;5617;54.046;10.676;2022-08-21T06:52:18;3.73;;;2.30;;
11125;SDS011;5617;54.046;10.676;2022-08-21T06:54:27;4.37;;;2.20;;
11125;SDS011;5617;54.046;10.676;2022-08-21T06:56:36;3.23;;;2.20;;
11125;SDS011;5617;54.046;10.676;2022-08-21T06:58:44;4.47;;;2.03;;
11125;SDS011;5617;54.046;10.676;2022-08-21T07:00:52;3.63;;;2.30;;
11125;SDS011;5617;54.046;10.676;2022-08-21T07:03:00;5.10;;;2.47;;
11125;SDS011;5617;54.046;10.676;2022-08-21T07:05:09;2.87;;;2.10;;
11125;SDS011;5617;54.046;10.676;2022-08-21T07:07:17;4.47;;;2.20;;
11125;SDS011;5617;54.046;10.676;2022-08-21T07:09:25;3.13;;;2.20;;
11125;SDS011;5617;54.046;10.676;2022-08-21T07:11:34;5.03;;;2.07;;
11125;SDS011;5617;54.046;10.676;2022-08-21T07:13:43;3.57;;;1.90;;
11125;SDS011;5617;54.046;10.676;2022-08-21T07:15:51;3.20;;;1.97;;
11125;SDS011;5617;54.046;10.676;2022-08-21T07:17:59;3.30;;;2.00;;
11125;SDS011;5617;54.046;10.676;2022-08-21T07:20:07;4.63;;;2.17;;
11125;SDS011;5617;54.046;10.676;2022-08-21T07:22:15;4.33;;;1.90;;
11125;SDS011;5617;54.046;10.676;2022-08-21T07:24:25;4.33;;;2.07;;
11125;SDS011;5617;54.046;10.676;2022-08-21T07:26:34;4.83;;;2.00;;
11125;SDS011;5617;54.046;10.676;2022-08-21T07:28:42;4.53;;;1.90;;
11125;SDS011;5617;54.046;10.676;2022-08-21T07:30:50;2.97;;;1.90;;
11125;SDS011;5617;54.046;10.676;2022-08-21T07:33:00;3.43;;;1.60;;
11125;SDS011;5617;54.046;10.676;2022-08-21T07:35:07;3.17;;;1.70;;
11125;SDS011;5617;54.046;10.676;2022-08-21T07:37:15;3.13;;;1.43;;
11125;SDS011;5617;54.046;10.676;2022-08-21T07:39:23;4.50;;;1.80;;
11125;SDS011;5617;54.046;10.676;2022-08-21T07:41:30;3.73;;;1.80;;
11125;SDS011;5617;54.046;10.676;2022-08-21T07:43:39;3.37;;;1.50;;
11125;SDS011;5617;54.046;10.676;2022-08-21T07:45:47;4.90;;;1.60;;
11125;SDS011;5617;54.046;10.676;2022-08-21T07:47:56;3.67;;;1.90;;
11125;SDS011;5617;54.046;10.676;2022-08-21T07:50:03;3.23;;;1.83;;
11125;SDS011;5617;54.046;10.676;2022-08-21T07:52:11;3.43;;;1.60;;
11125;SDS011;5617;54.046;10.676;2022-08-21T07:54:19;4.67;;;1.50;;
11125;SDS011;5617;54.046;10.676;2022-08-21T07:56:27;3.57;;;1.47;;
11125;SDS011;5617;54.046;10.676;2022-08-21T07:58:34;4.20;;;1.90;;
11125;SDS011;5617;54.046;10.676;2022-08-21T08:00:44;5.97;;;1.63;;
11125;SDS011;5617;54.046;10.676;2022-08-21T08:02:52;2.23;;;1.43;;
11125;SDS011;5617;54.046;10.676;2022-08-21T08:05:00;4.17;;;1.50;;
11125;SDS011;5617;54.046;10.676;2022-08-21T08:07:09;2.60;;;1.30;;
11125;SDS011;5617;54.046;10.676;2022-08-21T08:09:16;4.07;;;1.20;;
11125;SDS011;5617;54.046;10.676;2022-08-21T08:11:24;3.23;;;1.30;;
11125;SDS011;5617;54.046;10.676;2022-08-21T08:13:31;4.13;;;1.50;;
11125;SDS011;5617;54.046;10.676;2022-08-21T08:15:45;4.03;;;1.40;;
11125;SDS011;5617;54.046;10.676;2022-08-21T08:17:53;3.90;;;1.30;;
11125;SDS011;5617;54.046;10.676;2022-08-21T08:20:02;3.50;;;1.40;;
11125;SDS011;5617;54.046;10.676;2022-08-21T08:22:14;3.20;;;1.13;;
11125;SDS011;5617;54.046;10.676;2022-08-21T08:24:22;1.50;;;1.03;;
11125;SDS011;5617;54.046;10.676;2022-08-21T08:26:30;2.00;;;1.20;;
11125;SDS011;5617;54.046;10.676;2022-08-21T08:28:38;2.30;;;1.20;;
11125;SDS011;5617;54.046;10.676;2022-08-21T08:30:47;2.70;;;1.37;;
11125;SDS011;5617;54.046;10.676;2022-08-21T08:32:55;2.53;;;1.30;;
11125;SDS011;5617;54.046;10.676;2022-08-21T08:35:04;2.73;;;1.13;;
11125;SDS011;5617;54.046;10.676;2022-08-21T08:37:13;3.20;;;1.43;;
11125;SDS011;5617;54.046;10.676;2022-08-21T08:39:21;2.23;;;1.40;;
11125;SDS011;5617;54.046;10.676;2022-08-21T08:41:29;2.13;;;1.27;;
11125;SDS011;5617;54.046;10.676;2022-08-21T08:43:37;2.60;;;1.27;;
11125;SDS011;5617;54.046;10.676;2022-08-21T08:45:48;2.23;;;1.13;;
11125;SDS011;5617;54.046;10.676;2022-08-21T08:47:58;2.50;;;1.10;;
11125;SDS011;5617;54.046;10.676;2022-08-21T08:50:11;2.13;;;1.20;;
11125;SDS011;5617;54.046;10.676;2022-08-21T08:52:22;2.23;;;1.03;;
11125;SDS011;5617;54.046;10.676;2022-08-21T08:54:37;2.53;;;1.27;;
11125;SDS011;5617;54.046;10.676;2022-08-21T08:56:48;1.87;;;1.20;;
11125;SDS011;5617;54.046;10.676;2022-08-21T08:59:00;2.73;;;1.20;;
11125;SDS011;5617;54.046;10.676;2022-08-21T09:01:17;1.70;;;1.00;;
11125;SDS011;5617;54.046;10.676;2022-08-21T09:03:26;1.60;;;1.30;;
11125;SDS011;5617;54.046;10.676;2022-08-21T09:05:37;3.90;;;1.47;;
11125;SDS011;5617;54.046;10.676;2022-08-21T09:07:53;3.00;;;1.17;;
11125;SDS011;5617;54.046;10.676;2022-08-21T09:10:21;2.37;;;1.10;;
11125;SDS011;5617;54.046;10.676;2022-08-21T09:12:38;2.73;;;1.27;;
11125;SDS011;5617;54.046;10.676;2022-08-21T09:14:55;1.47;;;1.10;;
11125;SDS011;5617;54.046;10.676;2022-08-21T09:17:23;2.30;;;1.30;;
11125;SDS011;5617;54.046;10.676;2022-08-21T09:19:44;3.10;;;1.40;;
11125;SDS011;5617;54.046;10.676;2022-08-21T09:22:03;3.27;;;1.40;;
11125;SDS011;5617;54.046;10.676;2022-08-21T09:24:22;2.50;;;1.20;;
11125;SDS011;5617;54.046;10.676;2022-08-21T09:26:36;2.20;;;1.20;;
11125;SDS011;5617;54.046;10.676;2022-08-21T09:28:50;1.87;;;1.30;;
11125;SDS011;5617;54.046;10.676;2022-08-21T09:31:00;3.37;;;1.20;;
11125;SDS011;5617;54.046;10.676;2022-08-21T09:33:13;3.53;;;1.10;;
11125;SDS011;5617;54.046;10.676;2022-08-21T09:35:23;4.30;;;1.50;;
11125;SDS011;5617;54.046;10.676;2022-08-21T09:37:33;2.60;;;1.10;;
11125;SDS011;5617;54.046;10.676;2022-08-21T09:39:42;2.57;;;1.20;;
11125;SDS011;5617;54.046;10.676;2022-08-21T09:41:54;1.37;;;1.03;;
11125;SDS011;5617;54.046;10.676;2022-08-21T09:44:04;2.53;;;1.10;;
11125;SDS011;5617;54.046;10.676;2022-08-21T09:46:19;2.53;;;1.23;;
11125;SDS011;5617;54.046;10.676;2022-08-21T09:48:38;2.37;;;1.20;;
11125;SDS011;5617;54.046;10.676;2022-08-21T09:50:47;2.10;;;0.90;;
11125;SDS011;5617;54.046;10.676;2022-08-21T09:52:57;2.13;;;1.30;;
11125;SDS011;5617;54.046;10.676;2022-08-21T09:55:07;5.63;;;1.40;;
11125;SDS011;5617;54.046;10.676;2022-08-21T09:57:43;2.37;;;1.17;;
11125;SDS011;5617;54.046;10.676;2022-08-21T09:59:52;2.63;;;1.20;;
11125;SDS011;5617;54.046;10.676;2022-08-21T10:02:02;2.37;;;1.10;;
11125;SDS011;5617;54.046;10.676;2022-08-21T10:04:27;2.30;;;1.00;;
11125;SDS011;5617;54.046;10.676;2022-08-21T10:06:37;2.63;;;1.20;;
11125;SDS011;5617;54.046;10.676;2022-08-21T10:08:46;3.40;;;1.13;;
11125;SDS011;5617;54.046;10.676;2022-08-21T10:10:54;3.53;;;1.20;;
11125;SDS011;5617;54.046;10.676;2022-08-21T10:13:11;2.57;;;1.13;;
11125;SDS011;5617;54.046;10.676;2022-08-21T10:15:24;4.47;;;1.40;;
11125;SDS011;5617;54.046;10.676;2022-08-21T10:17:44;3.10;;;1.03;;
11125;SDS011;5617;54.046;10.676;2022-08-21T10:20:04;2.53;;;1.30;;
11125;SDS011;5617;54.046;10.676;2022-08-21T10:22:19;2.57;;;1.40;;
11125;SDS011;5617;54.046;10.676;2022-08-21T10:24:38;3.07;;;2.03;;
11125;SDS011;5617;54.046;10.676;2022-08-21T10:26:56;2.97;;;1.13;;
11125;SDS011;5617;54.046;10.676;2022-08-21T10:29:15;2.90;;;1.50;;
11125;SDS011;5617;54.046;10.676;2022-08-21T10:31:32;2.23;;;1.20;;
11125;SDS011;5617;54.046;10.676;2022-08-21T10:33:52;2.47;;;1.33;;
11125;SDS011;5617;54.046;10.676;2022-08-21T10:36:15;2.97;;;1.30;;
11125;SDS011;5617;54.046;10.676;2022-08-21T10:38:35;2.53;;;1.30;;
11125;SDS011;5617;54.046;10.676;2022-08-21T10:41:04;3.07;;;1.23;;
11125;SDS011;5617;54.046;10.676;2022-08-21T10:43:21;3.33;;;1.50;;
11125;SDS011;5617;54.046;10.676;2022-08-21T10:45:42;1.53;;;1.10;;
11125;SDS011;5617;54.046;10.676;2022-08-21T10:48:01;2.83;;;1.20;;
11125;SDS011;5617;54.046;10.676;2022-08-21T10:50:12;4.27;;;1.43;;
11125;SDS011;5617;54.046;10.676;2022-08-21T10:52:34;3.53;;;1.40;;
11125;SDS011;5617;54.046;10.676;2022-08-21T10:54:55;2.27;;;1.10;;
11125;SDS011;5617;54.046;10.676;2022-08-21T10:57:08;3.60;;;1.40;;
11125;SDS011;5617;54.046;10.676;2022-08-21T10:59:23;3.53;;;1.40;;
11125;SDS011;5617;54.046;10.676;2022-08-21T11:01:39;4.47;;;1.50;;
11125;SDS011;5617;54.046;10.676;2022-08-21T11:03:54;3.07;;;1.20;;
11125;SDS011;5617;54.046;10.676;2022-08-21T11:06:12;3.63;;;1.37;;
11125;SDS011;5617;54.046;10.676;2022-08-21T11:08:26;2.63;;;1.30;;
11125;SDS011;5617;54.046;10.676;2022-08-21T11:10:38;3.57;;;1.50;;
11125;SDS011;5617;54.046;10.676;2022-08-21T11:12:50;3.57;;;1.40;;
11125;SDS011;5617;54.046;10.676;2022-08-21T11:15:02;2.57;;;1.43;;
11125;SDS011;5617;54.046;10.676;2022-08-21T11:17:20;2.20;;;1.40;;
11125;SDS011;5617;54.046;10.676;2022-08-21T11:19:35;1.93;;;1.37;;
11125;SDS011;5617;54.046;10.676;2022-08-21T11:21:48;1.90;;;1.30;;
11125;SDS011;5617;54.046;10.676;2022-08-21T11:24:01;2.93;;;1.30;;
11125;SDS011;5617;54.046;10.676;2022-08-21T11:26:17;6.67;;;1.60;;
11125;SDS011;5617;54.046;10.676;2022-08-21T11:28:40;3.13;;;1.40;;
11125;SDS011;5617;54.046;10.676;2022-08-21T11:30:58;3.20;;;1.50;;
11125;SDS011;5617;54.046;10.676;2022-08-21T11:33:19;3.67;;;1.57;;
11125;SDS011;5617;54.046;10.676;2022-08-21T11:35:39;3.93;;;1.97;;
11125;SDS011;5617;54.046;10.676;2022-08-21T11:37:55;3.43;;;1.50;;
11125;SDS011;5617;54.046;10.676;2022-08-21T11:40:17;2.10;;;1.10;;
11125;SDS011;5617;54.046;10.676;2022-08-21T11:42:36;2.50;;;1.37;;
11125;SDS011;5617;54.046;10.676;2022-08-21T11:44:52;3.93;;;1.37;;
11125;SDS011;5617;54.046;10.676;2022-08-21T11:47:11;3.67;;;1.40;;
11125;SDS011;5617;54.046;10.676;2022-08-21T11:49:26;6.77;;;1.60;;
11125;SDS011;5617;54.046;10.676;2022-08-21T11:51:43;3.73;;;1.47;;
11125;SDS011;5617;54.046;10.676;2022-08-21T11:54:03;2.27;;;1.30;;
11125;SDS011;5617;54.046;10.676;2022-08-21T11:56:17;2.53;;;1.40;;
11125;SDS011;5617;54.046;10.676;2022-08-21T11:58:32;3.33;;;1.60;;
11125;SDS011;5617;54.046;10.676;2022-08-21T12:00:46;2.60;;;1.30;;
11125;SDS011;5617;54.046;10.676;2022-08-21T12:02:58;2.23;;;1.20;;
11125;SDS011;5617;54.046;10.676;2022-08-21T12:05:22;3.10;;;1.37;;
11125;SDS011;5617;54.046;10.676;2022-08-21T12:07:34;5.10;;;1.70;;
11125;SDS011;5617;54.046;10.676;2022-08-21T12:09:52;3.00;;;1.47;;
11125;SDS011;5617;54.046;10.676;2022-08-21T12:12:03;4.70;;;1.60;;
11125;SDS011;5617;54.046;10.676;2022-08-21T12:14:17;2.63;;;1.13;;
11125;SDS011;5617;54.046;10.676;2022-08-21T12:16:29;3.53;;;1.50;;
11125;SDS011;5617;54.046;10.676;2022-08-21T12:18:38;3.57;;;1.30;;
11125;SDS011;5617;54.046;10.676;2022-08-21T12:20:56;3.13;;;1.30;;
11125;SDS011;5617;54.046;10.676;2022-08-21T12:23:16;3.47;;;1.70;;
11125;SDS011;5617;54.046;10.676;2022-08-21T12:25:25;3.23;;;1.30;;
11125;SDS011;5617;54.046;10.676;2022-08-21T12:27:46;2.80;;;1.40;;
11125;SDS011;5617;54.046;10.676;2022-08-21T12:29:58;3.60;;;1.50;;
11125;SDS011;5617;54.046;10.676;2022-08-21T12:32:19;3.60;;;1.47;;
11125;SDS011;5617;54.046;10.676;2022-08-21T12:34:33;3.47;;;1.40;;
11125;SDS011;5617;54.046;10.676;2022-08-21T12:36:44;2.73;;;1.40;;
11125;SDS011;5617;54.046;10.676;2022-08-21T12:39:01;3.20;;;1.50;;
11125;SDS011;5617;54.046;10.676;2022-08-21T12:41:16;3.87;;;1.50;;
11125;SDS011;5617;54.046;10.676;2022-08-21T12:43:30;4.03;;;1.20;;
11125;SDS011;5617;54.046;10.676;2022-08-21T12:45:41;2.63;;;1.47;;
11125;SDS011;5617;54.046;10.676;2022-08-21T12:47:52;3.60;;;1.50;;
11125;SDS011;5617;54.046;10.676;2022-08-21T12:50:05;3.43;;;1.30;;
11125;SDS011;5617;54.046;10.676;2022-08-21T12:52:16;2.53;;;1.30;;
11125;SDS011;5617;54.046;10.676;2022-08-21T12:54:28;1.93;;;1.17;;
11125;SDS011;5617;54.046;10.676;2022-08-21T12:56:37;1.87;;;1.20;;
11125;SDS011;5617;54.046;10.676;2022-08-21T12:58:47;2.40;;;1.30;;
11125;SDS011;5617;54.046;10.676;2022-08-21T13:00:58;2.77;;;1.40;;
11125;SDS011;5617;54.046;10.676;2022-08-21T13:03:09;1.80;;;1.20;;
11125;SDS011;5617;54.046;10.676;2022-08-21T13:05:19;2.83;;;1.20;;
11125;SDS011;5617;54.046;10.676;2022-08-21T13:07:32;3.17;;;1.20;;